< < Back
Terminal Aerodrome Forecast


Current Version              Previous Versions:   1  2  3  4  5  6  7  8  9  

Terminal Aerodrome Forecast

050
FTUS42 KJAX 181100
TAFSSI
TAF
KSSI 181123Z 1812/1912 VRB04KT P6SM FEW010 SCT250
     FM181600 11005KT P6SM SCT035
     FM181900 12010KT P6SM VCSH BKN035
     FM190200 11005KT P6SM SCT035 SCT250=

Latest METAR

854
SAUS70 KWBC 182300 RRB
MTRSSI
METAR KSSI 182253Z AUTO 09004KT 10SM FEW024 27/22 A2991 RMK AO2 SLP129
T02720222


USA.gov is the U.S. government's official web portal to all federal, state and local government web resources and services.